Time;durP1;ratioP1;P1;durP2;ratioP2;P2;SDS_P1;SDS_P2;PMS_P1;PMS_P2;Temp;Humidity;BMP_temperature;BMP_pressure;BME280_temperature;BME280_humidity;BME280_pressure;Samples;Min_cycle;Max_cycle;Signal;HPM_P1;HPM_P2
2023/09/27 00:00:35;;;;;;;4.90;3.60;;;;;;;;;;5053807;28;20043;-58
2023/09/27 00:03:01;;;;;;;7.13;4.40;;;;;;;;;;5053296;28;20479;-58
2023/09/27 00:05:27;;;;;;;5.60;4.03;;;;;;;;;;5053449;28;20025;-58
2023/09/27 00:07:53;;;;;;;5.85;3.58;;;;;;;;;;5053367;28;20048;-58
2023/09/27 00:10:19;;;;;;;4.32;3.83;;;;;;;;;;5053927;28;20118;-58
2023/09/27 00:12:45;;;;;;;4.85;3.80;;;;;;;;;;5053612;28;20040;-58
2023/09/27 00:15:12;;;;;;;7.10;4.15;;;;;;;;;;5053627;28;20409;-58
2023/09/27 00:17:38;;;;;;;4.82;4.03;;;;;;;;;;5053318;28;20152;-58
2023/09/27 00:20:05;;;;;;;5.28;4.35;;;;;;;;;;5054146;28;20021;-58
2023/09/27 00:22:32;;;;;;;5.43;4.57;;;;;;;;;;5053176;28;20025;-58
2023/09/27 00:24:58;;;;;;;5.45;4.13;;;;;;;;;;5053692;28;20121;-57
2023/09/27 00:27:26;;;;;;;7.72;4.65;;;;;;;;;;5053228;28;20360;-58
2023/09/27 00:29:51;;;;;;;5.38;4.10;;;;;;;;;;5055309;28;20367;-58
2023/09/27 00:32:17;;;;;;;8.80;3.90;;;;;;;;;;5057560;28;20025;-58
2023/09/27 00:34:43;;;;;;;5.60;4.13;;;;;;;;;;5057553;28;20080;-58
2023/09/27 00:37:10;;;;;;;6.05;4.40;;;;;;;;;;5056986;28;20474;-58
2023/09/27 00:39:36;;;;;;;4.75;3.53;;;;;;;;;;5057181;28;20025;-58
2023/09/27 00:42:02;;;;;;;5.18;3.53;;;;;;;;;;5057627;28;20033;-58
2023/09/27 00:44:28;;;;;;;5.72;3.67;;;;;;;;;;5057464;28;20033;-58
2023/09/27 00:46:54;;;;;;;4.50;3.67;;;;;;;;;;5057050;28;20040;-58
2023/09/27 00:49:20;;;;;;;4.93;4.13;;;;;;;;;;5057661;28;20108;-58
2023/09/27 00:51:46;;;;;;;3.97;3.33;;;;;;;;;;5057426;28;20112;-58
2023/09/27 00:54:12;;;;;;;5.82;3.83;;;;;;;;;;5057100;28;20059;-58
2023/09/27 00:56:38;;;;;;;6.28;4.03;;;;;;;;;;5057107;28;20025;-58
2023/09/27 00:59:05;;;;;;;4.93;3.58;;;;;;;;;;5056569;28;20128;-58
2023/09/27 01:01:31;;;;;;;4.28;3.53;;;;;;;;;;5057270;28;20080;-57
2023/09/27 01:03:58;;;;;;;5.15;4.10;;;;;;;;;;5057128;28;20029;-57
2023/09/27 01:06:24;;;;;;;4.32;3.22;;;;;;;;;;5056667;28;20113;-59
2023/09/27 01:08:50;;;;;;;6.57;4.05;;;;;;;;;;5056894;28;20467;-60
2023/09/27 01:11:16;;;;;;;4.00;3.13;;;;;;;;;;5056708;28;20025;-60
2023/09/27 01:13:42;;;;;;;4.85;3.53;;;;;;;;;;5056567;28;20037;-60
2023/09/27 01:16:08;;;;;;;4.15;3.58;;;;;;;;;;5056514;28;20032;-57
2023/09/27 01:18:34;;;;;;;5.05;3.60;;;;;;;;;;5056921;28;20033;-58
2023/09/27 01:21:01;;;;;;;8.00;2.97;;;;;;;;;;5056715;28;20417;-58
2023/09/27 01:23:27;;;;;;;4.03;3.40;;;;;;;;;;5056516;28;20086;-58
2023/09/27 01:25:58;;;;;;;4.10;3.70;;;;;;;;;;5056510;28;20033;-58
2023/09/27 01:28:24;;;;;;;4.50;3.72;;;;;;;;;;5056793;28;20032;-58
2023/09/27 01:30:50;;;;;;;4.47;3.20;;;;;;;;;;5056730;28;20375;-58
2023/09/27 01:33:16;;;;;;;3.90;3.50;;;;;;;;;;5056225;28;20032;-57
2023/09/27 01:35:43;;;;;;;3.13;2.83;;;;;;;;;;5056428;28;20075;-60
2023/09/27 01:38:10;;;;;;;4.22;2.72;;;;;;;;;;5055768;28;20036;-60
2023/09/27 01:40:37;;;;;;;7.13;3.88;;;;;;;;;;5056115;28;20021;-60
2023/09/27 01:43:04;;;;;;;4.35;3.28;;;;;;;;;;5055873;28;20029;-60
2023/09/27 01:45:30;;;;;;;5.78;3.40;;;;;;;;;;5056202;28;20112;-58
2023/09/27 01:47:56;;;;;;;5.20;2.90;;;;;;;;;;5056228;28;20115;-57
2023/09/27 01:50:25;;;;;;;4.43;3.15;;;;;;;;;;5056433;28;20032;-58
2023/09/27 01:52:51;;;;;;;6.00;3.33;;;;;;;;;;5056185;28;20039;-58
2023/09/27 01:55:17;;;;;;;3.38;2.78;;;;;;;;;;5055781;28;20029;-57
2023/09/27 01:57:47;;;;;;;6.82;2.45;;;;;;;;;;5056235;28;20108;-58
2023/09/27 02:00:16;;;;;;;4.95;3.28;;;;;;;;;;5056215;28;20025;-57
2023/09/27 02:02:43;;;;;;;3.22;2.75;;;;;;;;;;5055523;28;20028;-58
2023/09/27 02:05:09;;;;;;;3.78;3.10;;;;;;;;;;5055587;28;20467;-58
2023/09/27 02:07:38;;;;;;;4.30;3.17;;;;;;;;;;5055515;28;20029;-57
2023/09/27 02:10:08;;;;;;;4.95;3.05;;;;;;;;;;5055776;28;20455;-57
2023/09/27 02:12:34;;;;;;;4.10;3.47;;;;;;;;;;5056355;28;20024;-58
2023/09/27 02:15:00;;;;;;;4.22;3.67;;;;;;;;;;5055391;28;20090;-57
2023/09/27 02:17:26;;;;;;;3.67;3.13;;;;;;;;;;5055714;28;20486;-58
2023/09/27 02:19:52;;;;;;;3.92;3.35;;;;;;;;;;5055046;28;20059;-58
2023/09/27 02:22:18;;;;;;;4.30;3.03;;;;;;;;;;5055284;28;20029;-58
2023/09/27 02:24:44;;;;;;;4.70;3.50;;;;;;;;;;5055921;28;20029;-58
2023/09/27 02:27:11;;;;;;;5.25;3.67;;;;;;;;;;5055071;28;20186;-58
2023/09/27 02:29:37;;;;;;;4.53;3.45;;;;;;;;;;5055699;28;20021;-57
2023/09/27 02:32:04;;;;;;;4.47;3.97;;;;;;;;;;5055095;28;20470;-58
2023/09/27 02:34:30;;;;;;;4.07;3.00;;;;;;;;;;5054835;28;20542;-58
2023/09/27 02:36:56;;;;;;;3.55;3.08;;;;;;;;;;5055335;28;20096;-57
2023/09/27 02:39:22;;;;;;;4.28;3.00;;;;;;;;;;5055529;28;20116;-57
2023/09/27 02:41:48;;;;;;;3.70;3.28;;;;;;;;;;5055135;28;20064;-57
2023/09/27 02:44:14;;;;;;;4.53;3.65;;;;;;;;;;5055029;28;20404;-58
2023/09/27 02:46:40;;;;;;;5.15;3.92;;;;;;;;;;5055035;28;20029;-58
2023/09/27 02:49:07;;;;;;;3.80;3.25;;;;;;;;;;5055218;28;20051;-58
2023/09/27 02:51:33;;;;;;;4.07;3.30;;;;;;;;;;5054657;28;20024;-58
2023/09/27 02:53:59;;;;;;;5.05;3.58;;;;;;;;;;5054136;28;20116;-57
2023/09/27 02:56:24;;;;;;;4.45;3.65;;;;;;;;;;5055391;28;20024;-57
2023/09/27 02:58:51;;;;;;;5.32;4.03;;;;;;;;;;5054573;28;20029;-58
2023/09/27 03:01:17;;;;;;;4.45;3.78;;;;;;;;;;5054582;28;20029;-58
2023/09/27 03:03:44;;;;;;;4.47;3.65;;;;;;;;;;5054358;28;20032;-58
2023/09/27 03:06:16;;;;;;;3.95;3.50;;;;;;;;;;5054937;28;20116;-57
2023/09/27 03:08:45;;;;;;;4.63;3.47;;;;;;;;;;5054594;28;20032;-57
2023/09/27 03:11:12;;;;;;;3.95;3.28;;;;;;;;;;5054885;28;20029;-57
2023/09/27 03:13:38;;;;;;;12.50;4.45;;;;;;;;;;5054224;28;20395;-57
2023/09/27 03:16:04;;;;;;;3.90;3.38;;;;;;;;;;5054399;28;20472;-58
2023/09/27 03:18:31;;;;;;;5.18;3.47;;;;;;;;;;5054625;28;20025;-58
2023/09/27 03:20:57;;;;;;;3.95;2.83;;;;;;;;;;5054954;28;20426;-57
2023/09/27 03:23:23;;;;;;;3.83;2.95;;;;;;;;;;5054017;28;20120;-58
2023/09/27 03:25:49;;;;;;;5.82;4.07;;;;;;;;;;5054276;28;20521;-57
2023/09/27 03:28:15;;;;;;;4.93;3.90;;;;;;;;;;5053976;28;20367;-57
2023/09/27 03:30:41;;;;;;;5.13;3.80;;;;;;;;;;5054518;28;20350;-57
2023/09/27 03:33:07;;;;;;;5.65;4.57;;;;;;;;;;5053638;28;20040;-58
2023/09/27 03:35:33;;;;;;;5.78;3.92;;;;;;;;;;5053836;28;20048;-57
2023/09/27 03:37:59;;;;;;;5.28;4.78;;;;;;;;;;5053813;28;20122;-57
2023/09/27 03:40:26;;;;;;;5.28;4.60;;;;;;;;;;5053942;28;20110;-57
2023/09/27 03:42:52;;;;;;;6.15;5.35;;;;;;;;;;5053710;28;20025;-58
2023/09/27 03:45:18;;;;;;;4.57;4.05;;;;;;;;;;5053981;28;20044;-57
2023/09/27 03:47:44;;;;;;;4.82;4.32;;;;;;;;;;5053424;28;20403;-57
2023/09/27 03:50:12;;;;;;;6.47;4.10;;;;;;;;;;5053970;28;20467;-59
2023/09/27 03:52:40;;;;;;;4.93;4.20;;;;;;;;;;5053614;28;20040;-59
2023/09/27 03:55:06;;;;;;;5.00;4.32;;;;;;;;;;5053204;28;20459;-58
2023/09/27 03:57:32;;;;;;;4.75;4.13;;;;;;;;;;5054016;28;20052;-58
2023/09/27 03:59:58;;;;;;;5.10;4.13;;;;;;;;;;5054082;28;20341;-57
2023/09/27 04:02:24;;;;;;;4.03;3.53;;;;;;;;;;5053665;28;20451;-57
2023/09/27 04:04:49;;;;;;;6.78;4.18;;;;;;;;;;5052424;28;20111;-57
2023/09/27 04:07:17;;;;;;;5.85;4.63;;;;;;;;;;5053527;28;20033;-57
2023/09/27 04:09:43;;;;;;;4.75;4.25;;;;;;;;;;5054056;28;20040;-57
2023/09/27 04:12:11;;;;;;;4.80;4.30;;;;;;;;;;5053450;28;20029;-57
2023/09/27 04:14:37;;;;;;;5.78;4.57;;;;;;;;;;5053432;28;20033;-57
2023/09/27 04:17:03;;;;;;;5.78;4.32;;;;;;;;;;5053136;28;20029;-57
2023/09/27 04:19:29;;;;;;;4.38;3.80;;;;;;;;;;5054285;28;20493;-57
2023/09/27 04:21:55;;;;;;;5.45;4.22;;;;;;;;;;5053133;28;20431;-57
2023/09/27 04:24:21;;;;;;;4.60;4.15;;;;;;;;;;5052887;28;20112;-57
2023/09/27 04:26:47;;;;;;;4.60;4.15;;;;;;;;;;5053233;28;20120;-58
2023/09/27 04:29:13;;;;;;;4.53;3.75;;;;;;;;;;5053861;28;20036;-58
2023/09/27 04:31:39;;;;;;;4.53;3.88;;;;;;;;;;5052992;28;20475;-57
2023/09/27 04:34:05;;;;;;;5.60;4.72;;;;;;;;;;5053230;28;20036;-57
2023/09/27 04:36:31;;;;;;;6.13;5.20;;;;;;;;;;5053570;28;20045;-57
2023/09/27 04:38:57;;;;;;;5.00;4.38;;;;;;;;;;5052889;28;20036;-57
2023/09/27 04:41:22;;;;;;;6.97;4.63;;;;;;;;;;5053683;28;20355;-57
2023/09/27 04:43:48;;;;;;;5.30;4.13;;;;;;;;;;5052835;28;20378;-57
2023/09/27 04:46:16;;;;;;;6.10;5.50;;;;;;;;;;5053890;28;20032;-57
2023/09/27 04:48:42;;;;;;;6.68;4.82;;;;;;;;;;5053637;28;20025;-57
2023/09/27 04:51:08;;;;;;;8.13;5.43;;;;;;;;;;5053204;28;20041;-57
2023/09/27 04:53:37;;;;;;;6.75;4.55;;;;;;;;;;5053038;28;20035;-57
2023/09/27 04:56:04;;;;;;;6.53;4.78;;;;;;;;;;5052963;28;20455;-57
2023/09/27 04:58:30;;;;;;;6.60;4.72;;;;;;;;;;5052994;28;20025;-57
2023/09/27 05:00:56;;;;;;;7.15;4.28;;;;;;;;;;5053795;28;20355;-59
2023/09/27 05:03:22;;;;;;;5.03;4.53;;;;;;;;;;5051379;28;20111;-60
2023/09/27 05:05:51;;;;;;;6.75;4.28;;;;;;;;;;5053477;28;20033;-60
2023/09/27 05:08:17;;;;;;;6.60;5.03;;;;;;;;;;5052935;28;20420;-60
2023/09/27 05:10:43;;;;;;;4.63;4.07;;;;;;;;;;5053540;28;20055;-59
2023/09/27 05:13:09;;;;;;;4.55;4.00;;;;;;;;;;5052662;28;20029;-59
2023/09/27 05:15:35;;;;;;;6.53;4.20;;;;;;;;;;5053805;28;20025;-59
2023/09/27 05:18:01;;;;;;;5.18;4.40;;;;;;;;;;5056487;28;20120;-59
2023/09/27 05:20:28;;;;;;;6.45;4.32;;;;;;;;;;5056582;28;20059;-59
2023/09/27 05:22:54;;;;;;;5.32;4.03;;;;;;;;;;5056856;28;20029;-59
2023/09/27 05:25:20;;;;;;;6.25;4.53;;;;;;;;;;5056417;28;20132;-59
2023/09/27 05:27:45;;;;;;;4.93;4.43;;;;;;;;;;5056883;28;20106;-59
2023/09/27 05:30:11;;;;;;;6.32;5.15;;;;;;;;;;5056665;28;20025;-60
2023/09/27 05:32:38;;;;;;;5.07;4.18;;;;;;;;;;5056312;28;20063;-59
2023/09/27 05:35:05;;;;;;;5.07;4.45;;;;;;;;;;5056554;28;20493;-58
2023/09/27 05:37:31;;;;;;;5.10;4.57;;;;;;;;;;5056115;28;20072;-57
2023/09/27 05:39:57;;;;;;;5.22;4.38;;;;;;;;;;5056446;28;20079;-58
2023/09/27 05:42:23;;;;;;;6.47;5.10;;;;;;;;;;5055818;28;20031;-58
2023/09/27 05:44:49;;;;;;;4.95;4.45;;;;;;;;;;5055950;28;20434;-59
2023/09/27 05:47:15;;;;;;;5.40;4.38;;;;;;;;;;5055543;28;20029;-58
2023/09/27 05:49:42;;;;;;;5.05;4.20;;;;;;;;;;5056219;28;20131;-58
2023/09/27 05:52:12;;;;;;;5.30;4.65;;;;;;;;;;5057024;28;20021;-57
2023/09/27 05:54:39;;;;;;;5.22;4.45;;;;;;;;;;5055955;28;20029;-57
2023/09/27 05:57:06;;;;;;;3.97;3.58;;;;;;;;;;5056133;28;20079;-57
2023/09/27 05:59:32;;;;;;;5.55;4.47;;;;;;;;;;5056375;28;20032;-57
2023/09/27 06:01:58;;;;;;;5.05;4.50;;;;;;;;;;5055787;28;20029;-57
2023/09/27 06:04:24;;;;;;;5.38;4.88;;;;;;;;;;5056040;28;20025;-57
2023/09/27 06:06:54;;;;;;;7.70;5.55;;;;;;;;;;5055641;28;20032;-57
2023/09/27 06:09:19;;;;;;;5.68;4.97;;;;;;;;;;5056074;28;20359;-57
2023/09/27 06:11:46;;;;;;;5.93;5.25;;;;;;;;;;5055189;28;20021;-57
2023/09/27 06:14:12;;;;;;;6.05;5.43;;;;;;;;;;5056500;28;20028;-58
2023/09/27 06:16:39;;;;;;;6.15;4.93;;;;;;;;;;5055394;28;20021;-57
2023/09/27 06:19:05;;;;;;;6.78;5.43;;;;;;;;;;5055636;28;20028;-58
2023/09/27 06:21:31;;;;;;;5.60;5.07;;;;;;;;;;5055237;28;20021;-57
2023/09/27 06:23:57;;;;;;;6.43;5.03;;;;;;;;;;5055746;28;20055;-57
2023/09/27 06:26:23;;;;;;;6.80;4.72;;;;;;;;;;5055023;28;20542;-58
2023/09/27 06:28:49;;;;;;;5.43;4.93;;;;;;;;;;5054532;28;20454;-57
2023/09/27 06:31:15;;;;;;;6.75;5.15;;;;;;;;;;5056008;28;20074;-57
2023/09/27 06:33:43;;;;;;;4.93;4.38;;;;;;;;;;5055216;28;20116;-57
2023/09/27 06:36:10;;;;;;;7.13;5.40;;;;;;;;;;5055547;28;20056;-57
2023/09/27 06:38:36;;;;;;;5.32;4.82;;;;;;;;;;5055179;28;20029;-57
2023/09/27 06:41:02;;;;;;;6.45;5.78;;;;;;;;;;5055809;28;20029;-57
2023/09/27 06:43:30;;;;;;;5.20;4.68;;;;;;;;;;5055609;28;20062;-58
2023/09/27 06:45:56;;;;;;;5.80;5.07;;;;;;;;;;5055642;28;20041;-57
2023/09/27 06:48:23;;;;;;;5.68;5.10;;;;;;;;;;5054856;28;20032;-57
2023/09/27 06:50:49;;;;;;;6.80;5.30;;;;;;;;;;5055110;28;20418;-57
2023/09/27 06:53:16;;;;;;;5.75;5.18;;;;;;;;;;5055070;28;20071;-57
2023/09/27 06:55:44;;;;;;;8.10;4.97;;;;;;;;;;5054962;28;20374;-57
2023/09/27 06:58:10;;;;;;;7.38;5.45;;;;;;;;;;5054625;28;20426;-58
2023/09/27 07:00:36;;;;;;;6.55;5.82;;;;;;;;;;5055239;28;20025;-57
2023/09/27 07:03:02;;;;;;;6.93;6.15;;;;;;;;;;5054777;28;20021;-58
2023/09/27 07:05:27;;;;;;;5.38;4.60;;;;;;;;;;5054791;28;20104;-57
2023/09/27 07:07:54;;;;;;;7.03;5.80;;;;;;;;;;5054507;28;20048;-57
2023/09/27 07:10:20;;;;;;;5.57;4.95;;;;;;;;;;5055040;28;20070;-57
2023/09/27 07:12:46;;;;;;;5.20;4.70;;;;;;;;;;5054274;28;20025;-57
2023/09/27 07:15:13;;;;;;;7.15;5.05;;;;;;;;;;5053994;28;20502;-57
2023/09/27 07:17:40;;;;;;;6.30;5.22;;;;;;;;;;5054308;28;20021;-58
2023/09/27 07:20:12;;;;;;;5.85;5.20;;;;;;;;;;5054931;28;20459;-58
2023/09/27 07:22:38;;;;;;;6.97;4.53;;;;;;;;;;5054165;28;20036;-57
2023/09/27 07:25:09;;;;;;;6.28;4.47;;;;;;;;;;5054086;28;20029;-57
2023/09/27 07:27:35;;;;;;;6.07;4.75;;;;;;;;;;5054394;28;20041;-57
2023/09/27 07:30:01;;;;;;;6.20;4.47;;;;;;;;;;5054584;28;20025;-57
2023/09/27 07:32:28;;;;;;;4.80;4.22;;;;;;;;;;5054041;28;20029;-58
2023/09/27 07:34:57;;;;;;;5.80;4.85;;;;;;;;;;5053793;28;20045;-57
2023/09/27 07:37:23;;;;;;;6.28;4.72;;;;;;;;;;5053808;28;20128;-58
2023/09/27 07:39:49;;;;;;;4.63;3.90;;;;;;;;;;5054386;28;20024;-58
2023/09/27 07:42:15;;;;;;;5.47;4.97;;;;;;;;;;5054481;28;20103;-57
2023/09/27 07:44:42;;;;;;;5.00;4.50;;;;;;;;;;5053711;28;20052;-57
2023/09/27 07:47:08;;;;;;;4.97;3.95;;;;;;;;;;5053764;28;20033;-57
2023/09/27 07:49:34;;;;;;;4.95;3.90;;;;;;;;;;5054129;28;20468;-58
2023/09/27 07:52:00;;;;;;;4.88;4.18;;;;;;;;;;5053714;28;20059;-58
2023/09/27 07:54:26;;;;;;;4.35;3.35;;;;;;;;;;5053585;28;20025;-58
2023/09/27 07:56:52;;;;;;;4.35;3.15;;;;;;;;;;5054186;28;20032;-57
2023/09/27 07:59:18;;;;;;;5.60;3.80;;;;;;;;;;5053728;28;20111;-58
2023/09/27 08:01:44;;;;;;;5.95;4.00;;;;;;;;;;5053852;28;20450;-58
2023/09/27 08:04:12;;;;;;;6.78;4.30;;;;;;;;;;5054012;28;20036;-58
2023/09/27 08:06:39;;;;;;;4.30;3.90;;;;;;;;;;5053545;28;20057;-57
2023/09/27 08:09:06;;;;;;;4.95;3.85;;;;;;;;;;5054116;28;20020;-57
2023/09/27 08:11:32;;;;;;;4.25;3.45;;;;;;;;;;5054312;28;20156;-57
2023/09/27 08:13:58;;;;;;;5.30;3.97;;;;;;;;;;5053543;28;20029;-58
2023/09/27 08:16:26;;;;;;;5.32;3.70;;;;;;;;;;5053434;28;20021;-58
2023/09/27 08:18:52;;;;;;;4.05;3.63;;;;;;;;;;5053367;28;20033;-57
2023/09/27 08:21:18;;;;;;;5.13;3.67;;;;;;;;;;5053894;28;20048;-58
2023/09/27 08:23:44;;;;;;;4.28;3.50;;;;;;;;;;5053769;28;20116;-58
2023/09/27 08:26:14;;;;;;;3.47;3.05;;;;;;;;;;5053328;28;20457;-58
2023/09/27 08:28:40;;;;;;;3.25;2.58;;;;;;;;;;5053064;28;20189;-58
2023/09/27 08:31:06;;;;;;;4.25;3.60;;;;;;;;;;5053634;28;20452;-58
2023/09/27 08:33:32;;;;;;;3.83;3.10;;;;;;;;;;5052978;28;20025;-58
2023/09/27 08:35:58;;;;;;;5.45;3.60;;;;;;;;;;5053154;28;20049;-57
2023/09/27 08:38:24;;;;;;;6.28;3.20;;;;;;;;;;5053191;28;20017;-58
2023/09/27 08:40:50;;;;;;;5.68;3.25;;;;;;;;;;5053269;28;20028;-58
2023/09/27 08:43:16;;;;;;;3.70;3.13;;;;;;;;;;5053117;28;20120;-58
2023/09/27 08:45:45;;;;;;;4.07;3.35;;;;;;;;;;5053157;28;20061;-58
2023/09/27 08:48:16;;;;;;;5.57;3.60;;;;;;;;;;5052989;28;20029;-58
2023/09/27 08:50:42;;;;;;;4.15;3.45;;;;;;;;;;5054765;28;20029;-58
2023/09/27 08:53:10;;;;;;;6.60;3.58;;;;;;;;;;5056924;28;20021;-58
2023/09/27 08:55:38;;;;;;;4.43;3.13;;;;;;;;;;5056988;28;20103;-58
2023/09/27 08:58:04;;;;;;;4.78;3.25;;;;;;;;;;5057522;28;20028;-58
2023/09/27 09:00:32;;;;;;;3.67;3.35;;;;;;;;;;5057334;28;20025;-58
2023/09/27 09:03:00;;;;;;;3.92;3.22;;;;;;;;;;5057220;28;20025;-58
2023/09/27 09:05:27;;;;;;;4.15;3.22;;;;;;;;;;5057325;28;20025;-58
2023/09/27 09:07:55;;;;;;;6.68;4.40;;;;;;;;;;5056712;28;20071;-57
2023/09/27 09:10:24;;;;;;;3.70;3.15;;;;;;;;;;5057296;28;20028;-58
2023/09/27 09:12:52;;;;;;;4.53;3.72;;;;;;;;;;5056658;28;20021;-58
2023/09/27 09:15:28;;;;;;;4.97;3.63;;;;;;;;;;5056577;28;20040;-58
2023/09/27 09:17:57;;;;;;;4.93;3.47;;;;;;;;;;5056543;28;20022;-58
2023/09/27 09:20:28;;;;;;;7.43;3.30;;;;;;;;;;5056837;28;20025;-58
2023/09/27 09:22:54;;;;;;;3.90;3.00;;;;;;;;;;5057247;28;20029;-58
2023/09/27 09:25:24;;;;;;;4.50;3.10;;;;;;;;;;5056296;28;20087;-58
2023/09/27 09:28:08;;;;;;;3.95;2.90;;;;;;;;;;5056912;28;20052;-58
2023/09/27 09:30:35;;;;;;;3.13;2.58;;;;;;;;;;5057215;28;20379;-58
2023/09/27 09:33:03;;;;;;;5.22;3.03;;;;;;;;;;5056843;28;20071;-58
2023/09/27 09:35:33;;;;;;;3.55;2.90;;;;;;;;;;5056265;28;20474;-58
2023/09/27 09:37:59;;;;;;;5.38;4.88;;;;;;;;;;5056239;28;20021;-58
2023/09/27 09:40:25;;;;;;;7.10;5.60;;;;;;;;;;5056520;28;20033;-58
2023/09/27 09:42:51;;;;;;;9.38;6.95;;;;;;;;;;5056069;28;20067;-58
2023/09/27 09:45:17;;;;;;;5.18;4.43;;;;;;;;;;5056458;28;20503;-58
2023/09/27 09:47:44;;;;;;;3.72;3.10;;;;;;;;;;5056382;28;20029;-58
2023/09/27 09:50:17;;;;;;;4.10;3.58;;;;;;;;;;5056007;28;20102;-58
2023/09/27 09:52:59;;;;;;;4.07;3.03;;;;;;;;;;5056484;28;20070;-58
2023/09/27 09:55:34;;;;;;;4.00;3.30;;;;;;;;;;5056130;28;20099;-58
2023/09/27 09:58:10;;;;;;;4.03;2.88;;;;;;;;;;5056442;28;20052;-58
2023/09/27 10:00:36;;;;;;;4.70;3.65;;;;;;;;;;5056404;28;20066;-58
2023/09/27 10:03:04;;;;;;;3.70;3.00;;;;;;;;;;5054495;28;20028;-58
2023/09/27 10:05:39;;;;;;;7.20;3.72;;;;;;;;;;5055749;28;20062;-58
2023/09/27 10:08:06;;;;;;;6.18;3.53;;;;;;;;;;5056229;28;20066;-58
2023/09/27 10:10:33;;;;;;;4.07;3.33;;;;;;;;;;5055564;28;20020;-58
2023/09/27 10:12:59;;;;;;;3.63;3.15;;;;;;;;;;5055574;28;20024;-58
2023/09/27 10:15:26;;;;;;;4.13;3.35;;;;;;;;;;5055546;28;20130;-58
2023/09/27 10:17:52;;;;;;;5.03;3.28;;;;;;;;;;5055960;28;20028;-58
2023/09/27 10:20:22;;;;;;;3.45;2.70;;;;;;;;;;5055969;28;20402;-58
2023/09/27 10:22:48;;;;;;;4.78;3.45;;;;;;;;;;5055371;28;20020;-58
2023/09/27 10:25:23;;;;;;;3.75;2.78;;;;;;;;;;5055611;28;20040;-58
2023/09/27 10:28:01;;;;;;;3.20;2.38;;;;;;;;;;5055703;28;20116;-58
2023/09/27 10:30:45;;;;;;;2.95;2.17;;;;;;;;;;5055527;28;20451;-58
2023/09/27 10:33:17;;;;;;;3.33;2.20;;;;;;;;;;5055153;28;20029;-58
2023/09/27 10:35:43;;;;;;;3.65;2.63;;;;;;;;;;5054917;28;20147;-58
2023/09/27 10:38:10;;;;;;;3.10;2.58;;;;;;;;;;5055307;28;20025;-58
2023/09/27 10:40:43;;;;;;;3.55;2.55;;;;;;;;;;5055527;28;20021;-58
2023/09/27 10:43:09;;;;;;;4.03;3.00;;;;;;;;;;5054817;28;20021;-58
2023/09/27 10:45:35;;;;;;;3.53;2.38;;;;;;;;;;5055291;28;20451;-58
2023/09/27 10:48:15;;;;;;;4.93;2.75;;;;;;;;;;5054883;28;20025;-58
2023/09/27 10:50:50;;;;;;;2.63;2.17;;;;;;;;;;5054770;28;20033;-59
2023/09/27 10:53:16;;;;;;;2.20;1.65;;;;;;;;;;5055096;28;20024;-58
2023/09/27 10:55:43;;;;;;;3.65;2.28;;;;;;;;;;5054856;28;20025;-58
2023/09/27 10:58:12;;;;;;;3.28;2.05;;;;;;;;;;5054522;28;20032;-58
2023/09/27 11:01:00;;;;;;;4.38;3.35;;;;;;;;;;5054649;28;20483;-58
2023/09/27 11:03:34;;;;;;;2.65;2.10;;;;;;;;;;5054520;28;20123;-58
2023/09/27 11:06:09;;;;;;;3.38;2.35;;;;;;;;;;5054829;28;20491;-58
2023/09/27 11:08:35;;;;;;;4.60;2.03;;;;;;;;;;5055017;28;20111;-58
2023/09/27 11:11:01;;;;;;;4.05;2.22;;;;;;;;;;5054709;28;20485;-58
2023/09/27 11:13:29;;;;;;;2.30;1.60;;;;;;;;;;5053998;28;20078;-58
2023/09/27 11:16:06;;;;;;;3.05;1.77;;;;;;;;;;5054345;28;20017;-58
2023/09/27 11:18:36;;;;;;;8.65;1.73;;;;;;;;;;5054892;28;20025;-58
2023/09/27 11:21:08;;;;;;;3.75;2.22;;;;;;;;;;5054608;28;20037;-58
2023/09/27 11:23:53;;;;;;;1.92;1.33;;;;;;;;;;5054171;28;20033;-58
2023/09/27 11:26:22;;;;;;;2.20;1.35;;;;;;;;;;5054207;28;20474;-58
2023/09/27 11:28:57;;;;;;;3.38;1.55;;;;;;;;;;5054005;28;20090;-58
2023/09/27 11:31:24;;;;;;;3.38;1.80;;;;;;;;;;5054057;28;20028;-58
2023/09/27 11:33:50;;;;;;;3.75;1.58;;;;;;;;;;5054579;28;20128;-58
2023/09/27 11:36:16;;;;;;;2.55;1.50;;;;;;;;;;5053559;28;20056;-58
2023/09/27 11:38:51;;;;;;;4.95;1.67;;;;;;;;;;5054399;28;20025;-58
2023/09/27 11:41:20;;;;;;;2.13;1.38;;;;;;;;;;5054476;28;20138;-58
2023/09/27 11:43:46;;;;;;;3.10;1.52;;;;;;;;;;5054337;28;20025;-58
2023/09/27 11:46:12;;;;;;;2.05;1.20;;;;;;;;;;5054363;28;20051;-58
2023/09/27 11:48:39;;;;;;;2.60;1.27;;;;;;;;;;5053583;28;20076;-58
2023/09/27 11:51:05;;;;;;;2.25;1.58;;;;;;;;;;5054019;28;20021;-58
2023/09/27 11:53:31;;;;;;;2.42;1.42;;;;;;;;;;5053849;28;20430;-58
2023/09/27 11:55:59;;;;;;;2.83;1.73;;;;;;;;;;5053625;28;20029;-58
2023/09/27 11:58:25;;;;;;;1.83;1.13;;;;;;;;;;5053764;28;20032;-58
2023/09/27 12:00:51;;;;;;;2.97;2.05;;;;;;;;;;5054354;28;20029;-58
2023/09/27 12:03:17;;;;;;;2.90;1.60;;;;;;;;;;5053397;28;20079;-58
2023/09/27 12:05:44;;;;;;;2.83;1.77;;;;;;;;;;5054316;28;20025;-58
2023/09/27 12:08:10;;;;;;;2.10;1.30;;;;;;;;;;5053986;28;20427;-58
2023/09/27 12:10:36;;;;;;;3.40;1.70;;;;;;;;;;5053748;28;20053;-59
2023/09/27 12:13:02;;;;;;;2.90;1.58;;;;;;;;;;5053831;28;20021;-58
2023/09/27 12:15:28;;;;;;;3.60;1.60;;;;;;;;;;5053390;28;20017;-58
2023/09/27 12:17:54;;;;;;;2.30;1.40;;;;;;;;;;5053570;28;20025;-58
2023/09/27 12:20:20;;;;;;;1.77;1.38;;;;;;;;;;5053525;28;20378;-58
2023/09/27 12:22:46;;;;;;;2.38;1.58;;;;;;;;;;5053439;28;20029;-59
2023/09/27 12:25:12;;;;;;;2.35;1.40;;;;;;;;;;5053780;28;20036;-58
2023/09/27 12:27:38;;;;;;;2.28;1.48;;;;;;;;;;5057486;28;20065;-58
2023/09/27 12:30:05;;;;;;;2.50;1.63;;;;;;;;;;5057622;28;20110;-58
2023/09/27 12:32:31;;;;;;;2.15;1.15;;;;;;;;;;5057708;28;20025;-59
2023/09/27 12:34:57;;;;;;;2.63;1.50;;;;;;;;;;5057066;28;20051;-58
2023/09/27 12:37:23;;;;;;;1.90;1.10;;;;;;;;;;5057518;28;20075;-58
2023/09/27 12:39:48;;;;;;;1.77;1.05;;;;;;;;;;5057894;28;20411;-58
2023/09/27 12:42:14;;;;;;;2.60;1.48;;;;;;;;;;5057250;28;20386;-58
2023/09/27 12:44:40;;;;;;;2.38;1.70;;;;;;;;;;5057164;28;20434;-58
2023/09/27 12:47:06;;;;;;;3.47;1.27;;;;;;;;;;5057047;28;20056;-58
2023/09/27 12:49:32;;;;;;;2.10;1.42;;;;;;;;;;5057389;28;20105;-58
2023/09/27 12:51:58;;;;;;;3.03;1.45;;;;;;;;;;5056989;28;20045;-58
2023/09/27 12:54:24;;;;;;;2.55;1.17;;;;;;;;;;5056899;28;20029;-58
2023/09/27 12:56:53;;;;;;;2.47;1.30;;;;;;;;;;5057540;28;20124;-58
2023/09/27 12:59:19;;;;;;;1.80;0.98;;;;;;;;;;5057213;28;20455;-58
2023/09/27 13:01:45;;;;;;;2.30;1.40;;;;;;;;;;5057337;28;20032;-58
2023/09/27 13:04:11;;;;;;;3.53;1.45;;;;;;;;;;5056843;28;20044;-59
2023/09/27 13:06:37;;;;;;;2.13;1.30;;;;;;;;;;5057566;28;20343;-58
2023/09/27 13:09:03;;;;;;;2.05;1.15;;;;;;;;;;5056966;28;20375;-58
2023/09/27 13:11:29;;;;;;;2.17;1.25;;;;;;;;;;5056795;28;20031;-58
2023/09/27 13:13:55;;;;;;;2.22;1.52;;;;;;;;;;5056706;28;20039;-58
2023/09/27 13:16:20;;;;;;;2.00;1.27;;;;;;;;;;5057421;28;20029;-59
2023/09/27 13:18:47;;;;;;;2.20;1.30;;;;;;;;;;5056600;28;20021;-58
2023/09/27 13:21:13;;;;;;;1.38;0.80;;;;;;;;;;5057162;28;20052;-59
2023/09/27 13:23:41;;;;;;;2.33;1.15;;;;;;;;;;5056719;28;20064;-58
2023/09/27 13:26:07;;;;;;;2.22;1.15;;;;;;;;;;5056476;28;20056;-58
2023/09/27 13:28:33;;;;;;;2.28;1.10;;;;;;;;;;5056981;28;20017;-59
2023/09/27 13:30:59;;;;;;;1.83;1.10;;;;;;;;;;5056456;28;20044;-59
2023/09/27 13:33:25;;;;;;;4.10;1.30;;;;;;;;;;5056196;28;20422;-58
2023/09/27 13:35:51;;;;;;;1.73;1.15;;;;;;;;;;5055957;28;20095;-59
2023/09/27 13:38:17;;;;;;;2.08;1.02;;;;;;;;;;5056033;28;20375;-58
2023/09/27 13:40:44;;;;;;;6.53;1.42;;;;;;;;;;5056822;28;20021;-58
2023/09/27 13:43:10;;;;;;;1.73;1.20;;;;;;;;;;5055805;28;20029;-58
2023/09/27 13:45:36;;;;;;;1.58;1.00;;;;;;;;;;5056440;28;20451;-58
2023/09/27 13:48:02;;;;;;;2.72;1.30;;;;;;;;;;5055936;28;20025;-58
2023/09/27 13:50:31;;;;;;;2.45;1.42;;;;;;;;;;5056601;28;20074;-58
2023/09/27 13:53:00;;;;;;;2.57;1.40;;;;;;;;;;5055573;28;20059;-58
2023/09/27 13:55:26;;;;;;;1.80;1.13;;;;;;;;;;5055492;28;20347;-58
2023/09/27 13:57:52;;;;;;;2.55;1.45;;;;;;;;;;5055810;28;20056;-59
2023/09/27 14:00:18;;;;;;;2.08;1.38;;;;;;;;;;5056022;28;20136;-58
2023/09/27 14:02:44;;;;;;;2.33;1.48;;;;;;;;;;5056480;28;20080;-59
2023/09/27 14:05:10;;;;;;;2.40;0.93;;;;;;;;;;5055601;28;20064;-59
2023/09/27 14:07:38;;;;;;;5.18;1.60;;;;;;;;;;5055564;28;20036;-59
2023/09/27 14:10:05;;;;;;;2.00;1.25;;;;;;;;;;5056015;28;20104;-58
2023/09/27 14:12:30;;;;;;;1.65;1.08;;;;;;;;;;5055372;28;20036;-58
2023/09/27 14:14:58;;;;;;;1.95;1.00;;;;;;;;;;5055609;28;20375;-59
2023/09/27 14:17:24;;;;;;;3.72;1.40;;;;;;;;;;5056330;28;20029;-58
2023/09/27 14:19:50;;;;;;;2.45;1.20;;;;;;;;;;5055787;28;20052;-58
2023/09/27 14:22:16;;;;;;;2.20;1.25;;;;;;;;;;5056185;28;20021;-58
2023/09/27 14:24:41;;;;;;;3.53;1.50;;;;;;;;;;5055347;28;20025;-59
2023/09/27 14:27:07;;;;;;;3.38;1.73;;;;;;;;;;5056067;28;20033;-58
2023/09/27 14:29:34;;;;;;;2.42;1.42;;;;;;;;;;5055630;28;20029;-58
2023/09/27 14:32:00;;;;;;;2.42;1.63;;;;;;;;;;5055150;28;20474;-58
2023/09/27 14:34:26;;;;;;;2.38;1.27;;;;;;;;;;5055191;28;20052;-58
2023/09/27 14:36:52;;;;;;;2.10;1.15;;;;;;;;;;5055498;28;20029;-58
2023/09/27 14:39:18;;;;;;;2.15;1.52;;;;;;;;;;5055744;28;20025;-58
2023/09/27 14:41:46;;;;;;;2.53;1.30;;;;;;;;;;5055014;28;20028;-59